Time;durP1;ratioP1;P1;durP2;ratioP2;P2;SDS_P1;SDS_P2;PMS_P1;PMS_P2;Temp;Humidity;BMP_temperature;BMP_pressure;BME280_temperature;BME280_humidity;BME280_pressure;Samples;Min_cycle;Max_cycle;Signal;HPM_P1;HPM_P2
2022/02/08 00:01:00;;;;;;;1.15;0.45;;;;;;;;;;5058440;28;20037;-88
2022/02/08 00:03:26;;;;;;;0.20;0.20;;;;;;;;;;5069655;28;20036;-88
2022/02/08 00:06:08;;;;;;;0.03;0.03;;;;;;;;;;5076708;28;20042;-88
2022/02/08 00:08:34;;;;;;;0.10;0.10;;;;;;;;;;5073373;28;20071;-89
2022/02/08 00:11:00;;;;;;;0.10;0.10;;;;;;;;;;5070241;28;20714;-88
2022/02/08 00:13:26;;;;;;;0.10;0.10;;;;;;;;;;5065997;28;20060;-88
2022/02/08 00:15:53;;;;;;;0.30;0.30;;;;;;;;;;5082159;28;20032;-90
2022/02/08 00:18:19;;;;;;;0.10;0.10;;;;;;;;;;5082997;28;20047;-88
2022/02/08 00:20:45;;;;;;;0.10;0.10;;;;;;;;;;5053301;28;20413;-88
2022/02/08 00:23:11;;;;;;;0.13;0.13;;;;;;;;;;5069397;28;20563;-87
2022/02/08 00:25:37;;;;;;;0.10;0.10;;;;;;;;;;5069309;28;20032;-86
2022/02/08 00:28:04;;;;;;;2.38;1.98;;;;;;;;;;5046357;28;20032;-88
2022/02/08 00:30:30;;;;;;;0.10;0.10;;;;;;;;;;5080007;28;20016;-88
2022/02/08 00:32:56;;;;;;;0.40;0.32;;;;;;;;;;5078590;28;20032;-88
2022/02/08 00:35:22;;;;;;;0.10;0.10;;;;;;;;;;5075695;28;20021;-90
2022/02/08 00:37:48;;;;;;;0.10;0.10;;;;;;;;;;5071046;28;20016;-91
2022/02/08 00:40:14;;;;;;;0.13;0.13;;;;;;;;;;5085574;28;20127;-92
2022/02/08 00:42:40;;;;;;;0.15;0.15;;;;;;;;;;5084522;28;20060;-91
2022/02/08 00:47:40;;;;;;;0.35;0.35;;;;;;;;;;5080982;28;20478;-92
2022/02/08 00:50:08;;;;;;;0.20;0.20;;;;;;;;;;5080977;28;20552;-90
2022/02/08 00:52:35;;;;;;;0.10;0.10;;;;;;;;;;5082044;28;20486;-88
2022/02/08 00:55:01;;;;;;;;;;;;;;;;;;5064833;28;20133;-87
2022/02/08 00:57:27;;;;;;;0.10;0.10;;;;;;;;;;5068159;28;19908;-88
2022/02/08 00:59:53;;;;;;;0.00;0.00;;;;;;;;;;5075095;28;20038;-88
2022/02/08 01:02:19;;;;;;;3.57;0.93;;;;;;;;;;5074647;28;20040;-89
2022/02/08 01:04:52;;;;;;;0.10;0.10;;;;;;;;;;5069726;28;20040;-89
2022/02/08 05:57:40;;;;;;;1.45;1.35;;;;;;;;;;5030061;22;20105;-87
2022/02/08 06:00:07;;;;;;;6.25;1.13;;;;;;;;;;5010240;28;20907;-88
2022/02/08 06:02:33;;;;;;;2.25;0.68;;;;;;;;;;5009582;28;20037;-87
2022/02/08 06:04:59;;;;;;;0.40;0.40;;;;;;;;;;5010408;28;20033;-85
2022/02/08 06:07:25;;;;;;;13.23;0.40;;;;;;;;;;5018901;28;20041;-89
2022/02/08 06:09:55;;;;;;;0.27;0.27;;;;;;;;;;5022953;28;20850;-87
2022/02/08 06:12:25;;;;;;;0.20;0.20;;;;;;;;;;5022909;28;20287;-91
2022/02/08 06:14:58;;;;;;;0.10;0.10;;;;;;;;;;5006119;28;20950;-88
2022/02/08 06:17:24;;;;;;;0.10;0.10;;;;;;;;;;5011213;28;20025;-89
2022/02/08 06:19:52;;;;;;;0.20;0.20;;;;;;;;;;5020848;28;20034;-88
2022/02/08 06:22:18;;;;;;;0.22;0.20;;;;;;;;;;5014377;28;20041;-88
2022/02/08 06:24:44;;;;;;;0.50;0.50;;;;;;;;;;5025758;28;20109;-89
2022/02/08 06:27:10;;;;;;;4.97;0.57;;;;;;;;;;5017801;28;20300;-87
2022/02/08 06:29:37;;;;;;;0.25;0.25;;;;;;;;;;5022230;28;20933;-86
2022/02/08 06:32:03;;;;;;;0.20;0.20;;;;;;;;;;5008938;28;20029;-87
2022/02/08 06:34:32;;;;;;;0.20;0.20;;;;;;;;;;5012623;28;20026;-88
2022/02/08 06:37:10;;;;;;;0.32;0.32;;;;;;;;;;5019843;28;20040;-86
2022/02/08 06:39:37;;;;;;;0.38;0.38;;;;;;;;;;5014777;28;20061;-87
2022/02/08 06:42:04;;;;;;;0.10;0.10;;;;;;;;;;5011917;28;20079;-87
2022/02/08 06:44:30;;;;;;;0.57;0.57;;;;;;;;;;5012472;28;20022;-87
2022/02/08 06:46:56;;;;;;;0.22;0.22;;;;;;;;;;5016838;28;20041;-87
2022/02/08 06:49:22;;;;;;;0.10;0.10;;;;;;;;;;5011145;28;20049;-87
2022/02/08 06:51:48;;;;;;;0.10;0.10;;;;;;;;;;5013975;28;20036;-86
2022/02/08 06:54:14;;;;;;;0.20;0.20;;;;;;;;;;5016656;28;20072;-86
2022/02/08 06:56:40;;;;;;;0.00;0.00;;;;;;;;;;5009836;28;20037;-86
2022/02/08 06:59:08;;;;;;;1.10;1.07;;;;;;;;;;5022252;28;20050;-87
2022/02/08 07:01:37;;;;;;;0.10;0.10;;;;;;;;;;5022516;28;20057;-86
2022/02/08 07:04:07;;;;;;;0.20;0.20;;;;;;;;;;5020853;28;20036;-86
2022/02/08 07:06:33;;;;;;;0.10;0.10;;;;;;;;;;5013924;28;20057;-87
2022/02/08 07:08:59;;;;;;;0.47;0.35;;;;;;;;;;5008885;28;20509;-91
2022/02/08 07:11:25;;;;;;;0.20;0.20;;;;;;;;;;4994049;28;20057;-86
2022/02/08 07:13:53;;;;;;;0.25;0.25;;;;;;;;;;5023842;28;20026;-87
2022/02/08 07:16:19;;;;;;;0.30;0.30;;;;;;;;;;5023851;28;20026;-88
2022/02/08 07:18:45;;;;;;;0.10;0.10;;;;;;;;;;5012169;28;20112;-87
2022/02/08 07:21:12;;;;;;;0.20;0.20;;;;;;;;;;5011577;28;20439;-88
2022/02/08 07:23:38;;;;;;;0.40;0.40;;;;;;;;;;5011879;28;20494;-87
2022/02/08 07:26:05;;;;;;;0.68;0.47;;;;;;;;;;5007669;28;20045;-88
2022/02/08 07:28:31;;;;;;;0.20;0.20;;;;;;;;;;5018581;28;20048;-87
2022/02/08 07:31:07;;;;;;;0.13;0.13;;;;;;;;;;5022569;28;20107;-88
2022/02/08 07:33:58;;;;;;;0.20;0.20;;;;;;;;;;5018513;28;20112;-93
2022/02/08 07:36:35;;;;;;;0.25;0.25;;;;;;;;;;5022059;28;20029;-89
2022/02/08 07:39:01;;;;;;;0.20;0.20;;;;;;;;;;5012183;28;20037;-87
2022/02/08 07:41:40;;;;;;;0.83;0.83;;;;;;;;;;5008557;28;20117;-88
2022/02/08 07:44:07;;;;;;;0.10;0.10;;;;;;;;;;4989862;28;20115;-87
2022/02/08 07:46:32;;;;;;;;;;;;;;;;;;5005654;28;20046;-87
2022/02/08 07:49:01;;;;;;;0.77;0.77;;;;;;;;;;5000580;28;19916;-87
2022/02/08 07:51:27;;;;;;;0.30;0.30;;;;;;;;;;5015807;28;20045;-87
2022/02/08 07:53:53;;;;;;;0.10;0.10;;;;;;;;;;5000710;28;20029;-88
2022/02/08 07:56:19;;;;;;;0.10;0.10;;;;;;;;;;5006083;28;20113;-88
2022/02/08 07:58:45;;;;;;;0.20;0.20;;;;;;;;;;5022099;28;20061;-88
2022/02/08 08:01:11;;;;;;;0.10;0.10;;;;;;;;;;5021007;28;20026;-88
2022/02/08 08:03:40;;;;;;;0.10;0.10;;;;;;;;;;5017666;28;20069;-88
2022/02/08 08:06:09;;;;;;;0.15;0.15;;;;;;;;;;5017783;28;20046;-89
2022/02/08 08:08:35;;;;;;;0.10;0.10;;;;;;;;;;5007682;28;20022;-87
2022/02/08 08:11:03;;;;;;;0.20;0.20;;;;;;;;;;5024073;28;20168;-90
2022/02/08 08:13:30;;;;;;;0.45;0.45;;;;;;;;;;5026253;28;20432;-89
2022/02/08 08:15:59;;;;;;;0.10;0.10;;;;;;;;;;5018166;28;20029;-88
2022/02/08 08:18:43;;;;;;;0.38;0.15;;;;;;;;;;5018804;28;20029;-90
2022/02/08 08:21:09;;;;;;;0.10;0.10;;;;;;;;;;5019622;28;20026;-88
2022/02/08 08:23:36;;;;;;;0.10;0.10;;;;;;;;;;5013767;28;20038;-89
2022/02/08 08:26:02;;;;;;;1999.90;999.90;;;;;;;;;;5008866;28;20033;-89
2022/02/08 08:28:28;;;;;;;1999.90;999.90;;;;;;;;;;5023520;28;20064;-90
2022/02/08 08:30:56;;;;;;;1999.90;999.90;;;;;;;;;;5010451;28;20048;-90
2022/02/08 08:33:22;;;;;;;214.50;204.70;;;;;;;;;;5013686;28;20509;-89
2022/02/08 08:35:48;;;;;;;873.60;833.20;;;;;;;;;;5011888;28;20029;-89
2022/02/08 08:38:17;;;;;;;1003.03;954.00;;;;;;;;;;5024848;28;20021;-90
2022/02/08 08:53:44;;;;;;;0.10;0.10;;;;;;;;;;5020845;28;20128;-89
2022/02/08 08:56:10;;;;;;;0.20;0.20;;;;;;;;;;5023737;28;20112;-90
2022/02/08 08:58:38;;;;;;;0.20;0.20;;;;;;;;;;5024176;28;20130;-87
2022/02/08 09:01:05;;;;;;;0.20;0.20;;;;;;;;;;5025750;28;20037;-90
2022/02/08 09:03:31;;;;;;;0.20;0.20;;;;;;;;;;4995206;28;20076;-90
2022/02/08 09:05:57;;;;;;;0.20;0.20;;;;;;;;;;4995626;28;20037;-90
2022/02/08 09:08:29;;;;;;;0.60;0.60;;;;;;;;;;5005083;28;20096;-91
2022/02/08 09:11:03;;;;;;;0.10;0.10;;;;;;;;;;5010310;28;20025;-91
2022/02/08 09:13:33;;;;;;;0.10;0.10;;;;;;;;;;5025579;28;20036;-92
2022/02/08 09:16:07;;;;;;;0.10;0.10;;;;;;;;;;5027929;28;20143;-91
2022/02/08 09:19:04;;;;;;;0.10;0.10;;;;;;;;;;5027708;28;20502;-91
2022/02/08 09:29:53;;;;;;;0.20;0.20;;;;;;;;;;5020135;28;20076;-92
2022/02/08 09:32:21;;;;;;;0.10;0.10;;;;;;;;;;5025443;28;20836;-91
2022/02/08 09:34:48;;;;;;;0.20;0.20;;;;;;;;;;5028613;28;20557;-91
2022/02/08 09:37:18;;;;;;;0.10;0.10;;;;;;;;;;5010903;28;20065;-92
2022/02/08 09:39:45;;;;;;;2.85;0.90;;;;;;;;;;5021651;28;20420;-92
2022/02/08 09:42:12;;;;;;;0.10;0.10;;;;;;;;;;5025933;28;20113;-91
2022/02/08 09:44:38;;;;;;;0.17;0.17;;;;;;;;;;5027145;28;20026;-92
2022/02/08 09:47:07;;;;;;;0.20;0.20;;;;;;;;;;5032597;28;20524;-91
2022/02/08 09:49:39;;;;;;;0.10;0.10;;;;;;;;;;5016172;28;20585;-91
2022/02/08 09:52:05;;;;;;;0.10;0.10;;;;;;;;;;5014457;28;20026;-91
2022/02/08 09:54:32;;;;;;;0.10;0.10;;;;;;;;;;5019989;28;20029;-90
2022/02/08 09:56:58;;;;;;;0.17;0.17;;;;;;;;;;5015673;28;20037;-92
2022/02/08 09:59:24;;;;;;;0.20;0.20;;;;;;;;;;5016468;28;20029;-91
2022/02/08 10:01:54;;;;;;;0.33;0.33;;;;;;;;;;4995896;28;20044;-91
2022/02/08 10:04:20;;;;;;;0.15;0.15;;;;;;;;;;5031462;28;20120;-92
2022/02/08 10:06:46;;;;;;;0.22;0.22;;;;;;;;;;5028994;28;20715;-92
2022/02/08 10:09:12;;;;;;;0.10;0.10;;;;;;;;;;5027291;28;20152;-90
2022/02/08 10:14:40;;;;;;;;;;;;;;;;;;5016190;28;20199;-90
2022/02/08 10:22:03;;;;;;;0.28;0.28;;;;;;;;;;5014709;28;20045;-91
2022/02/08 10:24:32;;;;;;;0.10;0.10;;;;;;;;;;5006893;28;20093;-92
2022/02/08 10:27:03;;;;;;;0.30;0.25;;;;;;;;;;5023302;28;20128;-91
2022/02/08 10:32:17;;;;;;;0.20;0.20;;;;;;;;;;5012051;28;20030;-91
2022/02/08 10:37:40;;;;;;;0.10;0.10;;;;;;;;;;5011009;28;20116;-90
2022/02/08 10:40:16;;;;;;;0.10;0.10;;;;;;;;;;5006481;28;20032;-91
2022/02/08 10:42:43;;;;;;;0.10;0.10;;;;;;;;;;4998144;28;20847;-90
2022/02/08 10:45:09;;;;;;;;;;;;;;;;;;5021025;28;20409;-92
2022/02/08 10:47:36;;;;;;;0.10;0.10;;;;;;;;;;5007932;28;19921;-92
2022/02/08 10:50:03;;;;;;;0.10;0.10;;;;;;;;;;5029413;28;20045;-90
2022/02/08 10:52:30;;;;;;;0.10;0.10;;;;;;;;;;5013824;28;20029;-91
2022/02/08 10:55:01;;;;;;;0.65;0.57;;;;;;;;;;4998552;28;20037;-89
2022/02/08 10:57:37;;;;;;;0.75;0.75;;;;;;;;;;5015317;28;20096;-90
2022/02/08 11:00:05;;;;;;;1.58;0.38;;;;;;;;;;5019907;28;20567;-91
2022/02/08 11:02:41;;;;;;;6.22;1.17;;;;;;;;;;5004737;28;20032;-91
2022/02/08 11:05:39;;;;;;;2.28;0.30;;;;;;;;;;5014696;28;20772;-89
2022/02/08 11:13:28;;;;;;;0.10;0.10;;;;;;;;;;5023627;28;20033;-91
2022/02/08 11:16:04;;;;;;;0.30;0.30;;;;;;;;;;5028581;28;20037;-92
2022/02/08 11:21:06;;;;;;;0.10;0.10;;;;;;;;;;5025733;28;20041;-92
2022/02/08 11:23:36;;;;;;;1.27;1.17;;;;;;;;;;5011256;28;20506;-90
2022/02/08 11:28:55;;;;;;;0.47;0.47;;;;;;;;;;5024189;28;20147;-90
2022/02/08 11:31:32;;;;;;;0.10;0.10;;;;;;;;;;4994833;28;20748;-90
2022/02/08 11:45:34;;;;;;;2.83;0.45;;;;;;;;;;5023384;28;20043;-89
2022/02/08 11:48:10;;;;;;;0.10;0.10;;;;;;;;;;5016712;28;20072;-89
2022/02/08 11:53:22;;;;;;;0.13;0.13;;;;;;;;;;5024558;28;20065;-89
2022/02/08 11:59:21;;;;;;;0.10;0.10;;;;;;;;;;5008187;28;20132;-91
2022/02/08 12:04:46;;;;;;;0.10;0.10;;;;;;;;;;4975715;28;20049;-91
2022/02/08 12:07:18;;;;;;;0.20;0.20;;;;;;;;;;4977856;28;20051;-93
2022/02/08 12:12:51;;;;;;;2.53;0.50;;;;;;;;;;4973667;28;20090;-92
2022/02/08 12:30:44;;;;;;;0.20;0.20;;;;;;;;;;4985091;28;20093;-92
2022/02/08 12:32:20;;;;;;;0.10;0.10;;;;;;;;;;4981222;28;20097;-93
2022/02/08 12:54:09;;;;;;;0.03;0.03;;;;;;;;;;5015995;28;20405;-91
2022/02/08 13:04:28;;;;;;;0.20;0.20;;;;;;;;;;5008950;28;20113;-91
2022/02/08 14:09:26;;;;;;;0.47;0.47;;;;;;;;;;5018251;28;20406;-93
2022/02/08 14:20:04;;;;;;;0.10;0.10;;;;;;;;;;5026015;28;20146;-91
2022/02/08 14:22:53;;;;;;;0.17;0.17;;;;;;;;;;4990352;28;20024;-90
2022/02/08 14:25:33;;;;;;;0.73;0.52;;;;;;;;;;5011766;28;20249;-90
2022/02/08 14:30:55;;;;;;;0.25;0.25;;;;;;;;;;5027495;28;20413;-87
2022/02/08 14:33:50;;;;;;;0.15;0.15;;;;;;;;;;5027600;28;20033;-89
2022/02/08 14:36:43;;;;;;;0.13;0.13;;;;;;;;;;5028723;28;20041;-88
2022/02/08 15:09:02;;;;;;;0.10;0.10;;;;;;;;;;5016135;28;20084;-89
2022/02/08 15:11:35;;;;;;;0.25;0.25;;;;;;;;;;5022040;28;20042;-89
2022/02/08 15:14:03;;;;;;;0.10;0.10;;;;;;;;;;5011342;28;20588;-88
2022/02/08 15:16:33;;;;;;;0.10;0.10;;;;;;;;;;5025101;28;20030;-89
2022/02/08 15:18:59;;;;;;;0.10;0.10;;;;;;;;;;5016818;28;20034;-89
2022/02/08 15:21:36;;;;;;;0.65;0.45;;;;;;;;;;5007234;28;20037;-88
2022/02/08 15:24:02;;;;;;;0.10;0.10;;;;;;;;;;5023339;28;20869;-88
2022/02/08 15:26:29;;;;;;;0.30;0.30;;;;;;;;;;5013286;28;20048;-89
2022/02/08 15:28:55;;;;;;;0.57;0.57;;;;;;;;;;5029227;28;20041;-89
2022/02/08 15:31:22;;;;;;;0.10;0.10;;;;;;;;;;5024121;28;20032;-88
2022/02/08 15:33:48;;;;;;;1.08;0.30;;;;;;;;;;5012735;28;20048;-87
2022/02/08 15:36:16;;;;;;;0.10;0.10;;;;;;;;;;5012800;28;20088;-88
2022/02/08 15:38:53;;;;;;;0.10;0.10;;;;;;;;;;5009872;28;20042;-88
2022/02/08 15:41:19;;;;;;;0.10;0.10;;;;;;;;;;5010478;28;20116;-88
2022/02/08 15:43:45;;;;;;;0.10;0.10;;;;;;;;;;5009695;28;20129;-89
2022/02/08 15:46:20;;;;;;;0.60;0.60;;;;;;;;;;5028746;28;20096;-88
2022/02/08 15:48:49;;;;;;;0.20;0.20;;;;;;;;;;5020191;28;20044;-88
2022/02/08 15:51:26;;;;;;;0.43;0.43;;;;;;;;;;5016276;28;20028;-88
2022/02/08 16:07:38;;;;;;;0.10;0.10;;;;;;;;;;4964094;28;20057;-88
2022/02/08 16:10:10;;;;;;;;;;;;;;;;;;4965218;28;20141;-89
2022/02/08 16:13:03;;;;;;;0.10;0.10;;;;;;;;;;4950036;28;20024;-89
2022/02/08 16:18:04;;;;;;;0.10;0.10;;;;;;;;;;4963175;28;20034;-87
2022/02/08 16:20:57;;;;;;;0.38;0.35;;;;;;;;;;4967510;28;20034;-93
2022/02/08 16:33:55;;;;;;;0.68;0.40;;;;;;;;;;4968619;28;20522;-92
2022/02/08 16:57:57;;;;;;;0.45;0.45;;;;;;;;;;5025803;28;20111;-92
2022/02/08 17:00:27;;;;;;;0.32;0.32;;;;;;;;;;5019403;28;20021;-93
2022/02/08 17:02:58;;;;;;;1.08;0.88;;;;;;;;;;5012803;28;20041;-89
2022/02/08 17:05:24;;;;;;;0.10;0.10;;;;;;;;;;5017228;28;20022;-91
2022/02/08 17:07:51;;;;;;;0.30;0.30;;;;;;;;;;5002423;28;20045;-91
2022/02/08 17:49:23;;;;;;;0.68;0.68;;;;;;;;;;5022873;28;20068;-92
2022/02/08 17:51:49;;;;;;;0.20;0.20;;;;;;;;;;5019527;28;20549;-94
2022/02/08 17:54:15;;;;;;;1.90;0.57;;;;;;;;;;5025885;28;20025;-92
2022/02/08 17:56:43;;;;;;;0.45;0.45;;;;;;;;;;4996000;28;20418;-92
2022/02/08 17:59:09;;;;;;;0.28;0.28;;;;;;;;;;5022192;28;20479;-95
2022/02/08 18:01:35;;;;;;;0.20;0.20;;;;;;;;;;5022217;28;20026;-94
2022/02/08 18:04:01;;;;;;;0.20;0.20;;;;;;;;;;5030375;28;20026;-92
2022/02/08 18:06:28;;;;;;;0.30;0.30;;;;;;;;;;5024156;28;20056;-92
2022/02/08 18:08:54;;;;;;;0.10;0.10;;;;;;;;;;5023510;28;20037;-93
2022/02/08 18:11:25;;;;;;;0.43;0.43;;;;;;;;;;5031049;28;20132;-92
2022/02/08 18:13:51;;;;;;;0.20;0.20;;;;;;;;;;5012962;28;20044;-92
2022/02/08 18:16:21;;;;;;;1.03;0.43;;;;;;;;;;5030338;28;20037;-92
2022/02/08 18:18:48;;;;;;;0.45;0.45;;;;;;;;;;5010740;28;20466;-92
2022/02/08 18:21:26;;;;;;;0.10;0.10;;;;;;;;;;5030294;28;20048;-93
2022/02/08 18:57:18;;;;;;;0.10;0.10;;;;;;;;;;5025091;28;20620;-93
2022/02/08 19:20:38;;;;;;;0.20;0.20;;;;;;;;;;5021777;28;20128;-94
2022/02/08 19:23:04;;;;;;;0.30;0.30;;;;;;;;;;5024234;28;20034;-92
2022/02/08 19:25:30;;;;;;;1.08;0.55;;;;;;;;;;5009446;28;20029;-93
2022/02/08 19:27:57;;;;;;;0.73;0.57;;;;;;;;;;5021063;28;20070;-93
2022/02/08 19:30:24;;;;;;;0.35;0.35;;;;;;;;;;5006616;28;20025;-95
2022/02/08 19:32:50;;;;;;;0.20;0.20;;;;;;;;;;5023256;28;20030;-93
2022/02/08 19:35:16;;;;;;;0.20;0.20;;;;;;;;;;5028527;28;20493;-90
2022/02/08 19:37:45;;;;;;;0.20;0.20;;;;;;;;;;5003745;28;20514;-89
2022/02/08 19:40:11;;;;;;;0.10;0.10;;;;;;;;;;5022032;28;20520;-92
2022/02/08 19:42:37;;;;;;;0.10;0.10;;;;;;;;;;5023341;28;20053;-92
2022/02/08 19:45:15;;;;;;;0.30;0.30;;;;;;;;;;5027953;28;20029;-91
2022/02/08 19:47:41;;;;;;;0.20;0.20;;;;;;;;;;5024609;28;20045;-91
2022/02/08 19:50:07;;;;;;;3.80;0.43;;;;;;;;;;5006268;28;20688;-90
2022/02/08 19:52:35;;;;;;;0.20;0.20;;;;;;;;;;5007606;28;20036;-92
2022/02/08 19:57:27;;;;;;;0.20;0.20;;;;;;;;;;5023416;28;20488;-93
2022/02/08 19:59:54;;;;;;;5.65;0.85;;;;;;;;;;5007666;28;20149;-92
2022/02/08 20:02:24;;;;;;;0.30;0.30;;;;;;;;;;5024949;28;20095;-93
2022/02/08 20:04:50;;;;;;;0.30;0.30;;;;;;;;;;5023501;28;20025;-91
2022/02/08 20:07:16;;;;;;;0.13;0.13;;;;;;;;;;5020019;28;20123;-92
2022/02/08 20:09:45;;;;;;;0.20;0.20;;;;;;;;;;4999495;28;20284;-92
2022/02/08 20:12:11;;;;;;;0.10;0.10;;;;;;;;;;5007581;28;20030;-93
2022/02/08 20:14:37;;;;;;;0.30;0.30;;;;;;;;;;5025574;28;20091;-89
2022/02/08 20:17:04;;;;;;;0.77;0.50;;;;;;;;;;5025003;28;20025;-91
2022/02/08 20:19:30;;;;;;;0.20;0.20;;;;;;;;;;5014835;28;20796;-90
2022/02/08 20:22:03;;;;;;;0.20;0.20;;;;;;;;;;5021701;28;20045;-92
2022/02/08 20:24:29;;;;;;;0.13;0.13;;;;;;;;;;5025270;28;20029;-93
2022/02/08 20:27:30;;;;;;;0.50;0.50;;;;;;;;;;5028100;28;22477;-92
2022/02/08 20:29:49;;;;;;;0.20;0.20;;;;;;;;;;5022806;28;20087;-93
2022/02/08 20:32:15;;;;;;;0.25;0.20;;;;;;;;;;5023399;28;20029;-93
2022/02/08 20:34:41;;;;;;;0.20;0.20;;;;;;;;;;5026584;28;20073;-92
2022/02/08 20:37:07;;;;;;;0.10;0.10;;;;;;;;;;5026029;28;20030;-93
2022/02/08 20:39:33;;;;;;;0.10;0.10;;;;;;;;;;5025946;28;20045;-92
2022/02/08 20:42:04;;;;;;;0.10;0.10;;;;;;;;;;5025761;28;20110;-91
2022/02/08 20:44:32;;;;;;;0.20;0.20;;;;;;;;;;5024779;28;20105;-91
2022/02/08 20:47:04;;;;;;;0.00;0.00;;;;;;;;;;5026339;28;20490;-90
2022/02/08 20:49:30;;;;;;;0.10;0.10;;;;;;;;;;5022771;28;20065;-92
2022/02/08 20:51:57;;;;;;;0.20;0.20;;;;;;;;;;5023478;28;20444;-90
2022/02/08 20:54:26;;;;;;;1.45;0.68;;;;;;;;;;5026725;28;20044;-90
2022/02/08 20:57:01;;;;;;;0.47;0.47;;;;;;;;;;5002268;28;20099;-94
2022/02/08 20:59:28;;;;;;;0.20;0.20;;;;;;;;;;5005002;28;20036;-91
2022/02/08 21:02:34;;;;;;;;;;;;;;;;;;;;;
2022/02/08 21:05:17;;;;;;;0.65;0.40;;;;;;;;;;5021397;28;20029;-88
2022/02/08 21:07:43;;;;;;;0.20;0.20;;;;;;;;;;5000932;28;20046;-92
2022/02/08 21:10:35;;;;;;;0.10;0.10;;;;;;;;;;5000553;28;20547;-92
2022/02/08 21:13:18;;;;;;;0.15;0.15;;;;;;;;;;5022839;28;20107;-93
2022/02/08 21:15:44;;;;;;;0.17;0.17;;;;;;;;;;5021229;28;20472;-93
2022/02/08 21:18:18;;;;;;;0.10;0.10;;;;;;;;;;5020711;28;20033;-91
2022/02/08 21:20:53;;;;;;;0.25;0.25;;;;;;;;;;5004320;28;20502;-93
2022/02/08 21:43:56;;;;;;;0.10;0.10;;;;;;;;;;4949731;29;20108;-90
2022/02/08 21:49:10;;;;;;;0.10;0.10;;;;;;;;;;4945284;28;20070;-92
2022/02/08 21:54:29;;;;;;;0.10;0.10;;;;;;;;;;4946319;28;20049;-92
2022/02/08 21:56:57;;;;;;;0.20;0.20;;;;;;;;;;4964329;28;20069;-91
2022/02/08 21:59:24;;;;;;;0.10;0.10;;;;;;;;;;5009938;28;20142;-91
2022/02/08 22:01:50;;;;;;;0.10;0.10;;;;;;;;;;5009461;28;20121;-91
2022/02/08 22:04:16;;;;;;;0.20;0.20;;;;;;;;;;4991367;28;20038;-91
2022/02/08 22:06:45;;;;;;;2.00;0.83;;;;;;;;;;5004131;28;20033;-90
2022/02/08 22:09:15;;;;;;;0.15;0.15;;;;;;;;;;5006824;28;20034;-92
2022/02/08 22:22:29;;;;;;;0.28;0.28;;;;;;;;;;5007872;28;20045;-93
2022/02/08 22:27:43;;;;;;;0.10;0.10;;;;;;;;;;5006353;28;20057;-92
2022/02/08 22:32:46;;;;;;;0.30;0.30;;;;;;;;;;5002994;28;20034;-92
2022/02/08 22:35:27;;;;;;;0.38;0.30;;;;;;;;;;5012272;28;20041;-90
2022/02/08 22:38:14;;;;;;;0.40;0.40;;;;;;;;;;5010215;28;20030;-91
2022/02/08 22:40:44;;;;;;;0.55;0.52;;;;;;;;;;5008192;28;20597;-91
2022/02/08 22:43:16;;;;;;;0.35;0.35;;;;;;;;;;5003825;28;20037;-90
2022/02/08 22:45:42;;;;;;;0.20;0.20;;;;;;;;;;5003714;28;20049;-91
2022/02/08 22:48:09;;;;;;;0.10;0.10;;;;;;;;;;5009392;28;20034;-90
2022/02/08 22:50:36;;;;;;;0.00;0.00;;;;;;;;;;5006396;28;20018;-91
2022/02/08 22:53:03;;;;;;;0.57;0.57;;;;;;;;;;4995306;28;20033;-92
2022/02/08 22:55:33;;;;;;;0.00;0.00;;;;;;;;;;5011002;28;20050;-91
2022/02/08 22:58:07;;;;;;;0.30;0.30;;;;;;;;;;5006285;28;20097;-92
2022/02/08 23:00:37;;;;;;;1.30;1.20;;;;;;;;;;4992948;28;20056;-89
2022/02/08 23:03:04;;;;;;;0.05;0.05;;;;;;;;;;5008699;28;20049;-91
2022/02/08 23:05:31;;;;;;;0.10;0.10;;;;;;;;;;4992258;28;20034;-91
2022/02/08 23:07:58;;;;;;;0.47;0.35;;;;;;;;;;4990658;28;20065;-91
2022/02/08 23:10:28;;;;;;;0.10;0.10;;;;;;;;;;5009883;28;20391;-91
2022/02/08 23:15:43;;;;;;;0.10;0.10;;;;;;;;;;5008459;28;20037;-90
2022/02/08 23:37:26;;;;;;;0.05;0.05;;;;;;;;;;4968507;28;20117;-90
2022/02/08 23:39:52;;;;;;;0.10;0.10;;;;;;;;;;4967922;28;20058;-90
2022/02/08 23:42:22;;;;;;;0.20;0.20;;;;;;;;;;4963402;28;20079;-90
2022/02/08 23:44:48;;;;;;;0.05;0.05;;;;;;;;;;4960909;28;20342;-90
2022/02/08 23:47:20;;;;;;;0.47;0.40;;;;;;;;;;4968361;28;20081;-91
2022/02/08 23:49:52;;;;;;;0.20;0.20;;;;;;;;;;4977975;28;20069;-90
2022/02/08 23:52:26;;;;;;;0.13;0.13;;;;;;;;;;4957389;28;20027;-90
2022/02/08 23:54:52;;;;;;;5.05;0.40;;;;;;;;;;4966125;28;20039;-90
2022/02/08 23:57:19;;;;;;;0.07;0.07;;;;;;;;;;4949486;28;20031;-92
2022/02/08 23:59:48;;;;;;;0.05;0.05;;;;;;;;;;4951313;28;20317;-91
